Terminal Aerodrome Forecast
Issued by NWS

Current Version | Previous Version | Graphics & Text | Print | Product List | Glossary On
Versions: 1 2 3 4 5 6 7 8 9 10 11 12 13 14 15 16 17 18 19 20 21 22 23
000
FTUS41 KILN 150529
TAFLUK
TAF
KLUK 150529Z 1506/1606 00000KT P6SM SCT060 BKN200
     FM150800 00000KT 4SM BR BKN060
      TEMPO 1508/1512 2SM BR
     FM151300 25005KT P6SM BKN050
     FM152300 26005KT P6SM SCT200
     FM160400 00000KT 4SM BR SCT200=

USA.gov is the U.S. government's official web portal to all federal, state and local government web resources and services.